QTR3A OPKC-OTHH
Flight info
| Callsign | QTR3A |
|---|---|
| Flight time | 2h 4m |
| Altitude | 36000 |
| Route | MELOM A454 VUSET N571 MENSA DCT EGTAG Q576 RORON/N0499F340 M430 TOSNA |
| Aircraft | A35K/H-SDE2E3GHIJ3J4J5LM1ORWXY/LB1D1 |
Departure
| Time | 2026-05-08 03:43 |
|---|---|
| Airport | Jinnah International Airport (OPKC) |
Arrival
| Time | 2026-05-08 05:47 |
|---|---|
| Airport | Hamad International Airport (OTHH) |
| Time | Latitude | Longitude | Altitude | Speed | Heading |
|---|---|---|---|---|---|
| 2026-05-08 03:21 | 24.89819 | 67.14787 | 94 ft | 0 kts | 330° |
| 2026-05-08 03:37 | 24.89816 | 67.14789 | 94 ft | 3 kts | 330° |
| 2026-05-08 03:37 | 24.89799 | 67.14799 | 95 ft | 3 kts | 353° |
| 2026-05-08 03:37 | 24.89779 | 67.14797 | 95 ft | 3 kts | 29° |
| 2026-05-08 03:38 | 24.89776 | 67.14796 | 93 ft | 0 kts | 34° |
| 2026-05-08 03:38 | 24.89777 | 67.14796 | 93 ft | 0 kts | 34° |
| 2026-05-08 03:38 | 24.89800 | 67.14815 | 98 ft | 6 kts | 39° |
| 2026-05-08 03:38 | 24.89823 | 67.14842 | 98 ft | 4 kts | 51° |
| 2026-05-08 03:39 | 24.89834 | 67.14861 | 95 ft | 2 kts | 59° |
| 2026-05-08 03:39 | 24.89863 | 67.14919 | 99 ft | 17 kts | 63° |
| 2026-05-08 03:39 | 24.89907 | 67.15040 | 98 ft | 17 kts | 70° |
| 2026-05-08 03:39 | 24.89952 | 67.15165 | 98 ft | 17 kts | 61° |
| 2026-05-08 03:40 | 24.89991 | 67.15289 | 98 ft | 17 kts | 77° |
| 2026-05-08 03:40 | 24.90015 | 67.15422 | 100 ft | 18 kts | 80° |
| 2026-05-08 03:40 | 24.90077 | 67.15547 | 101 ft | 18 kts | 52° |
| 2026-05-08 03:40 | 24.90151 | 67.15661 | 103 ft | 18 kts | 64° |
| 2026-05-08 03:41 | 24.90195 | 67.15756 | 103 ft | 10 kts | 34° |
| 2026-05-08 03:41 | 24.90265 | 67.15782 | 101 ft | 11 kts | 7° |
| 2026-05-08 03:41 | 24.90348 | 67.15776 | 103 ft | 12 kts | 347° |
| 2026-05-08 03:41 | 24.90424 | 67.15744 | 103 ft | 8 kts | 301° |
| 2026-05-08 03:42 | 24.90418 | 67.15690 | 100 ft | 13 kts | 257° |
| 2026-05-08 03:42 | 24.90314 | 67.15277 | 99 ft | 101 kts | 253° |
| 2026-05-08 03:42 | 24.90047 | 67.14236 | 135 ft | 175 kts | 253° |
| 2026-05-08 03:42 | 24.89711 | 67.12879 | 624 ft | 187 kts | 254° |
| 2026-05-08 03:43 | 24.89379 | 67.11454 | 865 ft | 197 kts | 258° |
| 2026-05-08 03:43 | 24.89151 | 67.09964 | 1240 ft | 200 kts | 244° |
| 2026-05-08 03:43 | 24.88179 | 67.08829 | 1531 ft | 214 kts | 210° |
| 2026-05-08 03:43 | 24.86974 | 67.07791 | 1801 ft | 231 kts | 233° |
| 2026-05-08 03:44 | 24.86295 | 67.06125 | 2086 ft | 248 kts | 255° |
| 2026-05-08 03:44 | 24.85995 | 67.04230 | 2621 ft | 253 kts | 263° |
| 2026-05-08 03:44 | 24.85873 | 67.02283 | 3138 ft | 257 kts | 267° |
| 2026-05-08 03:44 | 24.85821 | 67.00291 | 3599 ft | 263 kts | 268° |
| 2026-05-08 03:45 | 24.85778 | 66.98270 | 4097 ft | 265 kts | 268° |
| 2026-05-08 03:45 | 24.85715 | 66.96229 | 4610 ft | 268 kts | 268° |
| 2026-05-08 03:45 | 24.85628 | 66.94175 | 5086 ft | 271 kts | 267° |
| 2026-05-08 03:45 | 24.85517 | 66.92084 | 5519 ft | 275 kts | 267° |
| 2026-05-08 03:46 | 24.85390 | 66.89970 | 6002 ft | 279 kts | 267° |
| 2026-05-08 03:46 | 24.85345 | 66.89247 | 6133 ft | 280 kts | 267° |
| 2026-05-08 03:46 | 24.85267 | 66.88010 | 6352 ft | 284 kts | 267° |
| 2026-05-08 03:46 | 24.85251 | 66.87761 | 6398 ft | 285 kts | 267° |
| 2026-05-08 03:47 | 24.85153 | 66.86237 | 6683 ft | 288 kts | 267° |
| 2026-05-08 03:47 | 24.85095 | 66.85348 | 6863 ft | 289 kts | 267° |
| 2026-05-08 03:47 | 24.84951 | 66.83139 | 7329 ft | 290 kts | 267° |
| 2026-05-08 03:47 | 24.84808 | 66.80917 | 7814 ft | 292 kts | 267° |
| 2026-05-08 03:48 | 24.84664 | 66.78680 | 8290 ft | 294 kts | 268° |
| 2026-05-08 03:48 | 24.84519 | 66.76428 | 8773 ft | 296 kts | 268° |
| 2026-05-08 03:48 | 24.84374 | 66.74155 | 9268 ft | 299 kts | 268° |
| 2026-05-08 03:48 | 24.84229 | 66.71866 | 9749 ft | 301 kts | 268° |
| 2026-05-08 03:49 | 24.84079 | 66.69542 | 10073 ft | 310 kts | 268° |
| 2026-05-08 03:49 | 24.83925 | 66.67130 | 10266 ft | 323 kts | 268° |
| 2026-05-08 03:49 | 24.83831 | 66.65651 | 10368 ft | 330 kts | 268° |
| 2026-05-08 03:49 | 24.83751 | 66.64386 | 10462 ft | 336 kts | 268° |
| 2026-05-08 03:50 | 24.83584 | 66.61772 | 10623 ft | 348 kts | 268° |
| 2026-05-08 03:50 | 24.83411 | 66.59071 | 10786 ft | 359 kts | 268° |
| 2026-05-08 03:50 | 24.83231 | 66.56292 | 10935 ft | 369 kts | 269° |
| 2026-05-08 03:50 | 24.83045 | 66.53434 | 11061 ft | 379 kts | 269° |
| 2026-05-08 03:51 | 24.82854 | 66.50525 | 11354 ft | 383 kts | 269° |
| 2026-05-08 03:51 | 24.82660 | 66.47588 | 11727 ft | 385 kts | 269° |
| 2026-05-08 03:51 | 24.82465 | 66.44642 | 12108 ft | 387 kts | 269° |
| 2026-05-08 03:51 | 24.82269 | 66.41680 | 12479 ft | 389 kts | 269° |
| 2026-05-08 03:52 | 24.82071 | 66.38710 | 12843 ft | 390 kts | 270° |
| 2026-05-08 03:52 | 24.81873 | 66.35724 | 13218 ft | 392 kts | 270° |
| 2026-05-08 03:52 | 24.81673 | 66.32725 | 13582 ft | 394 kts | 270° |
| 2026-05-08 03:52 | 24.81472 | 66.29713 | 13897 ft | 395 kts | 270° |
| 2026-05-08 03:53 | 24.81270 | 66.26688 | 14207 ft | 398 kts | 270° |
| 2026-05-08 03:53 | 24.81065 | 66.23644 | 14513 ft | 400 kts | 270° |
| 2026-05-08 03:53 | 24.80859 | 66.20585 | 14804 ft | 402 kts | 269° |
| 2026-05-08 03:53 | 24.80651 | 66.17507 | 15120 ft | 404 kts | 269° |
| 2026-05-08 03:54 | 24.80442 | 66.14418 | 15438 ft | 406 kts | 269° |
| 2026-05-08 03:54 | 24.80233 | 66.11355 | 15753 ft | 408 kts | 269° |
| 2026-05-08 03:54 | 24.80021 | 66.08237 | 16067 ft | 410 kts | 269° |
| 2026-05-08 03:54 | 24.79803 | 66.05060 | 16388 ft | 412 kts | 268° |
| 2026-05-08 03:55 | 24.79590 | 66.01955 | 16696 ft | 414 kts | 268° |
| 2026-05-08 03:55 | 24.79372 | 65.98788 | 17003 ft | 416 kts | 268° |
| 2026-05-08 03:55 | 24.79152 | 65.95605 | 17324 ft | 418 kts | 268° |
| 2026-05-08 03:55 | 24.78931 | 65.92410 | 17620 ft | 420 kts | 268° |
| 2026-05-08 03:56 | 24.78707 | 65.89186 | 17799 ft | 425 kts | 267° |
| 2026-05-08 03:56 | 24.78480 | 65.85930 | 18103 ft | 427 kts | 267° |
| 2026-05-08 03:56 | 24.78251 | 65.82665 | 18392 ft | 428 kts | 267° |
| 2026-05-08 03:56 | 24.78176 | 65.81591 | 18498 ft | 428 kts | 267° |
| 2026-05-08 03:57 | 24.78128 | 65.80901 | 18567 ft | 428 kts | 267° |
| 2026-05-08 03:57 | 24.78068 | 65.80059 | 18653 ft | 428 kts | 267° |
| 2026-05-08 03:57 | 24.77838 | 65.76790 | 18951 ft | 429 kts | 267° |
| 2026-05-08 03:57 | 24.77607 | 65.73517 | 19247 ft | 429 kts | 267° |
| 2026-05-08 03:58 | 24.77375 | 65.70243 | 19537 ft | 430 kts | 267° |
| 2026-05-08 03:58 | 24.77142 | 65.66957 | 19821 ft | 431 kts | 267° |
| 2026-05-08 03:58 | 24.76908 | 65.63673 | 20101 ft | 431 kts | 267° |
| 2026-05-08 03:58 | 24.76673 | 65.60380 | 20362 ft | 432 kts | 267° |
| 2026-05-08 03:59 | 24.76437 | 65.57071 | 20574 ft | 435 kts | 267° |
| 2026-05-08 03:59 | 24.76199 | 65.53754 | 20868 ft | 435 kts | 267° |
| 2026-05-08 03:59 | 24.75959 | 65.50435 | 21164 ft | 435 kts | 267° |
| 2026-05-08 03:59 | 24.75719 | 65.47114 | 21440 ft | 436 kts | 267° |
| 2026-05-08 04:00 | 24.75477 | 65.43787 | 21708 ft | 437 kts | 267° |
| 2026-05-08 04:00 | 24.75235 | 65.40454 | 21978 ft | 437 kts | 267° |
| 2026-05-08 04:00 | 24.74992 | 65.37121 | 22248 ft | 438 kts | 267° |
| 2026-05-08 04:00 | 24.74747 | 65.33776 | 22510 ft | 439 kts | 267° |
| 2026-05-08 04:01 | 24.74501 | 65.30428 | 22769 ft | 440 kts | 267° |
| 2026-05-08 04:01 | 24.74254 | 65.27068 | 22967 ft | 442 kts | 267° |
| 2026-05-08 04:01 | 24.74005 | 65.23694 | 23174 ft | 444 kts | 267° |
| 2026-05-08 04:01 | 24.73754 | 65.20312 | 23422 ft | 444 kts | 267° |
| 2026-05-08 04:02 | 24.73502 | 65.16923 | 23629 ft | 445 kts | 267° |
| 2026-05-08 04:02 | 24.73249 | 65.13529 | 23829 ft | 446 kts | 267° |
| 2026-05-08 04:02 | 24.72995 | 65.10133 | 24026 ft | 446 kts | 267° |
| 2026-05-08 04:02 | 24.72740 | 65.06727 | 24225 ft | 447 kts | 267° |
| 2026-05-08 04:03 | 24.72483 | 65.03316 | 24427 ft | 448 kts | 267° |
| 2026-05-08 04:03 | 24.71970 | 64.96527 | 24805 ft | 449 kts | 267° |
| 2026-05-08 04:03 | 24.71710 | 64.93093 | 24963 ft | 451 kts | 267° |
| 2026-05-08 04:04 | 24.71448 | 64.89654 | 25161 ft | 452 kts | 267° |
| 2026-05-08 04:04 | 24.71184 | 64.86209 | 25361 ft | 452 kts | 267° |
| 2026-05-08 04:04 | 24.70920 | 64.82757 | 25550 ft | 453 kts | 267° |
| 2026-05-08 04:04 | 24.70654 | 64.79303 | 25748 ft | 454 kts | 267° |
| 2026-05-08 04:05 | 24.70387 | 64.75841 | 25942 ft | 455 kts | 267° |
| 2026-05-08 04:05 | 24.70119 | 64.72371 | 26131 ft | 456 kts | 267° |
| 2026-05-08 04:05 | 24.69849 | 64.68895 | 26319 ft | 456 kts | 267° |
| 2026-05-08 04:05 | 24.69579 | 64.65415 | 26506 ft | 457 kts | 267° |
| 2026-05-08 04:06 | 24.69307 | 64.61929 | 26693 ft | 458 kts | 267° |
| 2026-05-08 04:06 | 24.69034 | 64.58436 | 26871 ft | 459 kts | 267° |
| 2026-05-08 04:06 | 24.68759 | 64.54935 | 27042 ft | 460 kts | 267° |
| 2026-05-08 04:06 | 24.68483 | 64.51430 | 27245 ft | 461 kts | 267° |
| 2026-05-08 04:07 | 24.68296 | 64.49056 | 27351 ft | 461 kts | 267° |
| 2026-05-08 04:07 | 24.67927 | 64.44395 | 27597 ft | 463 kts | 267° |
| 2026-05-08 04:07 | 24.67647 | 64.40870 | 27771 ft | 463 kts | 267° |
| 2026-05-08 04:07 | 24.67365 | 64.37336 | 27948 ft | 464 kts | 267° |
| 2026-05-08 04:08 | 24.67178 | 64.34994 | 28054 ft | 465 kts | 267° |
| 2026-05-08 04:08 | 24.66895 | 64.31448 | 28222 ft | 466 kts | 267° |
| 2026-05-08 04:08 | 24.66610 | 64.27900 | 28389 ft | 467 kts | 267° |
| 2026-05-08 04:08 | 24.66323 | 64.24341 | 28568 ft | 468 kts | 267° |
| 2026-05-08 04:09 | 24.66035 | 64.20775 | 28723 ft | 469 kts | 267° |
| 2026-05-08 04:09 | 24.65745 | 64.17204 | 28886 ft | 469 kts | 267° |
| 2026-05-08 04:09 | 24.65455 | 64.13629 | 29044 ft | 470 kts | 267° |
| 2026-05-08 04:09 | 24.65162 | 64.10045 | 29200 ft | 471 kts | 267° |
| 2026-05-08 04:10 | 24.64869 | 64.06455 | 29364 ft | 472 kts | 267° |
| 2026-05-08 04:10 | 24.64574 | 64.02857 | 29477 ft | 474 kts | 267° |
| 2026-05-08 04:10 | 24.64277 | 63.99244 | 29585 ft | 475 kts | 267° |
| 2026-05-08 04:10 | 24.63979 | 63.95625 | 29737 ft | 476 kts | 267° |
| 2026-05-08 04:11 | 24.63679 | 63.92000 | 29887 ft | 477 kts | 267° |
| 2026-05-08 04:11 | 24.63377 | 63.88369 | 30015 ft | 477 kts | 267° |
| 2026-05-08 04:11 | 24.63075 | 63.84733 | 30128 ft | 478 kts | 267° |
| 2026-05-08 04:11 | 24.62770 | 63.81089 | 30254 ft | 479 kts | 267° |
| 2026-05-08 04:12 | 24.62465 | 63.77443 | 30388 ft | 480 kts | 267° |
| 2026-05-08 04:12 | 24.62159 | 63.73787 | 30496 ft | 481 kts | 266° |
| 2026-05-08 04:12 | 24.61541 | 63.66453 | 30710 ft | 483 kts | 266° |
| 2026-05-08 04:13 | 24.61229 | 63.62777 | 30837 ft | 484 kts | 266° |
| 2026-05-08 04:13 | 24.60916 | 63.59094 | 30980 ft | 484 kts | 266° |
| 2026-05-08 04:13 | 24.60602 | 63.55407 | 31100 ft | 485 kts | 266° |
| 2026-05-08 04:13 | 24.60287 | 63.51715 | 31226 ft | 486 kts | 266° |
| 2026-05-08 04:14 | 24.59971 | 63.48020 | 31395 ft | 485 kts | 266° |
| 2026-05-08 04:14 | 24.59665 | 63.44336 | 31593 ft | 484 kts | 266° |
| 2026-05-08 04:14 | 24.59361 | 63.40651 | 31728 ft | 485 kts | 266° |
| 2026-05-08 04:14 | 24.59057 | 63.36959 | 31778 ft | 486 kts | 266° |
| 2026-05-08 04:15 | 24.58443 | 63.29571 | 31781 ft | 485 kts | 266° |
| 2026-05-08 04:15 | 24.57824 | 63.22189 | 31781 ft | 485 kts | 266° |
| 2026-05-08 04:16 | 24.57205 | 63.14856 | 31779 ft | 485 kts | 266° |
| 2026-05-08 04:16 | 24.56578 | 63.07467 | 31777 ft | 486 kts | 266° |
| 2026-05-08 04:17 | 24.55946 | 63.00066 | 31780 ft | 487 kts | 266° |
| 2026-05-08 04:17 | 24.55309 | 62.92660 | 31780 ft | 487 kts | 266° |
| 2026-05-08 04:18 | 24.54693 | 62.85251 | 31774 ft | 487 kts | 268° |
| 2026-05-08 04:18 | 24.54564 | 62.77836 | 31777 ft | 485 kts | 271° |
| 2026-05-08 04:19 | 24.54612 | 62.70440 | 31776 ft | 484 kts | 271° |
| 2026-05-08 04:19 | 24.54685 | 62.63054 | 31776 ft | 484 kts | 271° |
| 2026-05-08 04:20 | 24.54743 | 62.55656 | 31774 ft | 484 kts | 271° |
| 2026-05-08 04:20 | 24.54786 | 62.48261 | 31774 ft | 485 kts | 271° |
| 2026-05-08 04:21 | 24.54823 | 62.40856 | 31770 ft | 485 kts | 271° |
| 2026-05-08 04:21 | 24.54856 | 62.33449 | 31772 ft | 485 kts | 271° |
| 2026-05-08 04:22 | 24.54886 | 62.26039 | 31772 ft | 485 kts | 271° |
| 2026-05-08 04:22 | 24.54913 | 62.18626 | 31770 ft | 486 kts | 271° |
| 2026-05-08 04:23 | 24.54936 | 62.11200 | 31769 ft | 487 kts | 271° |
| 2026-05-08 04:23 | 24.54955 | 62.03770 | 31766 ft | 487 kts | 271° |
| 2026-05-08 04:24 | 24.54971 | 61.96336 | 31763 ft | 487 kts | 271° |
| 2026-05-08 04:24 | 24.54984 | 61.88908 | 31756 ft | 487 kts | 271° |
| 2026-05-08 04:25 | 24.54992 | 61.81468 | 31760 ft | 487 kts | 270° |
| 2026-05-08 04:25 | 24.54997 | 61.74024 | 31761 ft | 487 kts | 270° |
| 2026-05-08 04:26 | 24.54998 | 61.66581 | 31760 ft | 487 kts | 270° |
| 2026-05-08 04:26 | 24.54996 | 61.59139 | 31760 ft | 487 kts | 270° |
| 2026-05-08 04:27 | 24.54990 | 61.51748 | 31758 ft | 487 kts | 270° |
| 2026-05-08 04:27 | 24.54980 | 61.44310 | 31758 ft | 487 kts | 270° |
| 2026-05-08 04:28 | 24.54967 | 61.36885 | 31753 ft | 485 kts | 270° |
| 2026-05-08 04:28 | 24.55346 | 61.29493 | 31751 ft | 485 kts | 276° |
| 2026-05-08 04:29 | 24.56061 | 61.22115 | 31751 ft | 486 kts | 277° |
| 2026-05-08 04:29 | 24.56836 | 61.14736 | 31753 ft | 486 kts | 277° |
| 2026-05-08 04:30 | 24.57601 | 61.07361 | 31753 ft | 486 kts | 277° |
| 2026-05-08 04:30 | 24.58349 | 60.99980 | 31747 ft | 486 kts | 276° |
| 2026-05-08 04:31 | 24.59089 | 60.92594 | 31750 ft | 487 kts | 276° |
| 2026-05-08 04:31 | 24.59826 | 60.85201 | 31748 ft | 487 kts | 276° |
| 2026-05-08 04:32 | 24.60559 | 60.77805 | 31752 ft | 487 kts | 276° |
| 2026-05-08 04:32 | 24.61279 | 60.70524 | 31753 ft | 487 kts | 276° |
| 2026-05-08 04:33 | 24.61975 | 60.63433 | 31756 ft | 487 kts | 276° |
| 2026-05-08 04:33 | 24.62694 | 60.56079 | 31755 ft | 487 kts | 276° |
| 2026-05-08 04:34 | 24.63419 | 60.48626 | 31758 ft | 487 kts | 276° |
| 2026-05-08 04:34 | 24.64130 | 60.41278 | 31754 ft | 487 kts | 276° |
| 2026-05-08 04:35 | 24.64842 | 60.33883 | 31756 ft | 487 kts | 276° |
| 2026-05-08 04:35 | 24.65551 | 60.26482 | 31761 ft | 487 kts | 276° |
| 2026-05-08 04:36 | 24.66255 | 60.19084 | 31761 ft | 487 kts | 276° |
| 2026-05-08 04:36 | 24.66957 | 60.11681 | 31763 ft | 487 kts | 276° |
| 2026-05-08 04:37 | 24.67655 | 60.04277 | 31764 ft | 487 kts | 276° |
| 2026-05-08 04:37 | 24.68349 | 59.96875 | 31763 ft | 487 kts | 276° |
| 2026-05-08 04:38 | 24.69040 | 59.89469 | 31769 ft | 487 kts | 276° |
| 2026-05-08 04:38 | 24.69726 | 59.82072 | 31767 ft | 486 kts | 275° |
| 2026-05-08 04:39 | 24.70410 | 59.74663 | 31770 ft | 487 kts | 275° |
| 2026-05-08 04:39 | 24.71089 | 59.67257 | 31771 ft | 487 kts | 275° |
| 2026-05-08 04:40 | 24.71765 | 59.59848 | 31769 ft | 487 kts | 275° |
| 2026-05-08 04:40 | 24.72438 | 59.52444 | 31767 ft | 487 kts | 275° |
| 2026-05-08 04:41 | 24.73106 | 59.45037 | 31772 ft | 486 kts | 275° |
| 2026-05-08 04:41 | 24.73766 | 59.37686 | 31772 ft | 486 kts | 275° |
| 2026-05-08 04:42 | 24.74427 | 59.30279 | 31777 ft | 487 kts | 275° |
| 2026-05-08 04:42 | 24.75086 | 59.22862 | 31779 ft | 487 kts | 275° |
| 2026-05-08 04:43 | 24.75740 | 59.15445 | 31783 ft | 487 kts | 275° |
| 2026-05-08 04:43 | 24.76392 | 59.08023 | 31783 ft | 487 kts | 275° |
| 2026-05-08 04:44 | 24.77039 | 59.00604 | 31786 ft | 487 kts | 275° |
| 2026-05-08 04:44 | 24.77684 | 58.93172 | 31786 ft | 488 kts | 275° |
| 2026-05-08 04:45 | 24.78325 | 58.85742 | 31784 ft | 488 kts | 275° |
| 2026-05-08 04:45 | 24.78962 | 58.78308 | 31787 ft | 488 kts | 275° |
| 2026-05-08 04:46 | 24.79596 | 58.70876 | 31791 ft | 488 kts | 275° |
| 2026-05-08 04:46 | 24.80226 | 58.63443 | 31789 ft | 488 kts | 275° |
| 2026-05-08 04:47 | 24.80852 | 58.56012 | 31797 ft | 488 kts | 275° |
| 2026-05-08 04:47 | 24.81474 | 58.48575 | 31795 ft | 488 kts | 275° |
| 2026-05-08 04:48 | 24.82094 | 58.41142 | 31796 ft | 488 kts | 274° |
| 2026-05-08 04:48 | 24.82709 | 58.33700 | 31805 ft | 488 kts | 274° |
| 2026-05-08 04:49 | 24.83321 | 58.26257 | 31797 ft | 488 kts | 274° |
| 2026-05-08 04:49 | 24.83929 | 58.18816 | 31805 ft | 488 kts | 274° |
| 2026-05-08 04:50 | 24.84534 | 58.11371 | 31807 ft | 488 kts | 274° |
| 2026-05-08 04:50 | 24.85135 | 58.03922 | 31807 ft | 489 kts | 274° |
| 2026-05-08 04:51 | 24.85733 | 57.96470 | 31814 ft | 489 kts | 274° |
| 2026-05-08 04:51 | 24.86327 | 57.89022 | 31813 ft | 488 kts | 274° |
| 2026-05-08 04:52 | 24.86912 | 57.81641 | 31816 ft | 487 kts | 274° |
| 2026-05-08 04:52 | 24.87497 | 57.74210 | 31816 ft | 487 kts | 274° |
| 2026-05-08 04:53 | 24.88078 | 57.66780 | 31819 ft | 487 kts | 274° |
| 2026-05-08 04:53 | 24.88655 | 57.59350 | 31819 ft | 487 kts | 274° |
| 2026-05-08 04:54 | 24.89229 | 57.51918 | 31819 ft | 487 kts | 274° |
| 2026-05-08 04:54 | 24.89799 | 57.44483 | 31823 ft | 487 kts | 274° |
| 2026-05-08 04:55 | 24.90366 | 57.37047 | 31823 ft | 487 kts | 273° |
| 2026-05-08 04:55 | 24.90834 | 57.30873 | 31820 ft | 487 kts | 273° |
| 2026-05-08 04:56 | 24.91393 | 57.23447 | 31822 ft | 486 kts | 273° |
| 2026-05-08 04:56 | 24.91948 | 57.16023 | 31820 ft | 486 kts | 273° |
| 2026-05-08 04:57 | 24.92499 | 57.08597 | 31823 ft | 486 kts | 273° |
| 2026-05-08 04:57 | 24.93046 | 57.01185 | 31826 ft | 485 kts | 273° |
| 2026-05-08 04:58 | 24.93589 | 56.93783 | 31818 ft | 485 kts | 273° |
| 2026-05-08 04:58 | 24.94127 | 56.86380 | 31818 ft | 485 kts | 273° |
| 2026-05-08 04:59 | 24.94663 | 56.78977 | 31818 ft | 484 kts | 273° |
| 2026-05-08 04:59 | 24.95193 | 56.71582 | 31818 ft | 484 kts | 273° |
| 2026-05-08 05:00 | 24.95720 | 56.64187 | 31815 ft | 484 kts | 273° |
| 2026-05-08 05:00 | 24.96244 | 56.56795 | 31791 ft | 484 kts | 272° |
| 2026-05-08 05:01 | 24.96875 | 56.49408 | 31790 ft | 485 kts | 275° |
| 2026-05-08 05:01 | 24.97817 | 56.42047 | 31783 ft | 485 kts | 276° |
| 2026-05-08 05:02 | 24.98773 | 56.34734 | 31780 ft | 485 kts | 276° |
| 2026-05-08 05:02 | 24.99682 | 56.27377 | 31780 ft | 484 kts | 275° |
| 2026-05-08 05:03 | 25.00558 | 56.20022 | 31810 ft | 484 kts | 275° |
| 2026-05-08 05:03 | 25.01427 | 56.12667 | 31812 ft | 483 kts | 275° |
| 2026-05-08 05:04 | 25.02294 | 56.05316 | 31822 ft | 484 kts | 275° |
| 2026-05-08 05:04 | 25.03159 | 55.97958 | 31837 ft | 484 kts | 275° |
| 2026-05-08 05:05 | 25.04019 | 55.90604 | 31837 ft | 484 kts | 275° |
| 2026-05-08 05:05 | 25.04876 | 55.83243 | 31848 ft | 484 kts | 275° |
| 2026-05-08 05:06 | 25.05730 | 55.75884 | 31848 ft | 484 kts | 275° |
| 2026-05-08 05:06 | 25.06581 | 55.68515 | 31847 ft | 484 kts | 275° |
| 2026-05-08 05:07 | 25.07429 | 55.61145 | 31848 ft | 484 kts | 275° |
| 2026-05-08 05:07 | 25.08271 | 55.53792 | 31843 ft | 483 kts | 275° |
| 2026-05-08 05:08 | 25.09109 | 55.46442 | 31839 ft | 483 kts | 275° |
| 2026-05-08 05:08 | 25.09943 | 55.39090 | 31835 ft | 483 kts | 275° |
| 2026-05-08 05:09 | 25.10774 | 55.31734 | 31835 ft | 483 kts | 275° |
| 2026-05-08 05:09 | 25.11601 | 55.24380 | 31858 ft | 483 kts | 275° |
| 2026-05-08 05:10 | 25.12835 | 55.13341 | 31854 ft | 483 kts | 275° |
| 2026-05-08 05:11 | 25.13654 | 55.05978 | 31853 ft | 483 kts | 275° |
| 2026-05-08 05:11 | 25.14468 | 54.98615 | 31859 ft | 483 kts | 275° |
| 2026-05-08 05:12 | 25.14487 | 54.91300 | 31853 ft | 479 kts | 263° |
| 2026-05-08 05:12 | 25.13804 | 54.84002 | 31853 ft | 478 kts | 262° |
| 2026-05-08 05:13 | 25.13000 | 54.76685 | 31853 ft | 484 kts | 261° |
| 2026-05-08 05:13 | 25.12484 | 54.69240 | 31852 ft | 491 kts | 269° |
| 2026-05-08 05:14 | 25.13104 | 54.61684 | 31854 ft | 497 kts | 275° |
| 2026-05-08 05:14 | 25.14109 | 54.54118 | 31853 ft | 500 kts | 276° |
| 2026-05-08 05:15 | 25.15161 | 54.46529 | 31854 ft | 501 kts | 276° |
| 2026-05-08 05:15 | 25.16171 | 54.38938 | 31854 ft | 494 kts | 276° |
| 2026-05-08 05:16 | 25.17071 | 54.31536 | 31855 ft | 482 kts | 271° |
| 2026-05-08 05:16 | 25.16885 | 54.24203 | 31604 ft | 477 kts | 263° |
| 2026-05-08 05:16 | 25.16523 | 54.20564 | 31334 ft | 476 kts | 259° |
| 2026-05-08 05:17 | 25.15956 | 54.16973 | 31054 ft | 475 kts | 257° |
| 2026-05-08 05:17 | 25.15327 | 54.13403 | 30777 ft | 473 kts | 257° |
| 2026-05-08 05:17 | 25.14696 | 54.09897 | 30504 ft | 471 kts | 257° |
| 2026-05-08 05:17 | 25.14054 | 54.06362 | 30224 ft | 469 kts | 257° |
| 2026-05-08 05:18 | 25.13434 | 54.02834 | 29953 ft | 467 kts | 259° |
| 2026-05-08 05:18 | 25.12951 | 53.99297 | 29641 ft | 466 kts | 261° |
| 2026-05-08 05:18 | 25.12556 | 53.95758 | 29325 ft | 464 kts | 263° |
| 2026-05-08 05:18 | 25.12394 | 53.92206 | 28936 ft | 463 kts | 266° |
| 2026-05-08 05:19 | 25.12328 | 53.88662 | 28241 ft | 461 kts | 267° |
| 2026-05-08 05:19 | 25.12285 | 53.85144 | 27696 ft | 456 kts | 267° |
| 2026-05-08 05:19 | 25.12249 | 53.81662 | 27116 ft | 452 kts | 267° |
| 2026-05-08 05:19 | 25.12213 | 53.78206 | 26535 ft | 449 kts | 267° |
| 2026-05-08 05:20 | 25.12178 | 53.74773 | 25946 ft | 446 kts | 267° |
| 2026-05-08 05:20 | 25.12143 | 53.71366 | 25380 ft | 443 kts | 267° |
| 2026-05-08 05:20 | 25.12108 | 53.67979 | 24814 ft | 440 kts | 267° |
| 2026-05-08 05:20 | 25.12072 | 53.64614 | 24251 ft | 437 kts | 267° |
| 2026-05-08 05:21 | 25.12036 | 53.61269 | 23698 ft | 435 kts | 267° |
| 2026-05-08 05:21 | 25.11999 | 53.57942 | 23068 ft | 433 kts | 267° |
| 2026-05-08 05:21 | 25.11962 | 53.54632 | 22401 ft | 430 kts | 267° |
| 2026-05-08 05:21 | 25.11924 | 53.51341 | 21750 ft | 428 kts | 267° |
| 2026-05-08 05:22 | 25.11886 | 53.48070 | 21111 ft | 425 kts | 267° |
| 2026-05-08 05:22 | 25.11848 | 53.44823 | 20495 ft | 422 kts | 267° |
| 2026-05-08 05:22 | 25.11809 | 53.41588 | 19884 ft | 420 kts | 267° |
| 2026-05-08 05:22 | 25.11769 | 53.38376 | 19290 ft | 418 kts | 267° |
| 2026-05-08 05:23 | 25.11729 | 53.35180 | 18704 ft | 415 kts | 267° |
| 2026-05-08 05:23 | 25.11689 | 53.32003 | 18104 ft | 413 kts | 267° |
| 2026-05-08 05:23 | 25.11647 | 53.28839 | 17449 ft | 411 kts | 267° |
| 2026-05-08 05:23 | 25.11606 | 53.25699 | 16837 ft | 408 kts | 267° |
| 2026-05-08 05:24 | 25.11564 | 53.22583 | 16254 ft | 404 kts | 267° |
| 2026-05-08 05:24 | 25.11522 | 53.19496 | 15664 ft | 401 kts | 268° |
| 2026-05-08 05:24 | 25.11480 | 53.16471 | 15076 ft | 398 kts | 268° |
| 2026-05-08 05:24 | 25.11437 | 53.13388 | 14491 ft | 396 kts | 268° |
| 2026-05-08 05:25 | 25.11395 | 53.10401 | 13934 ft | 393 kts | 268° |
| 2026-05-08 05:25 | 25.11351 | 53.07398 | 13318 ft | 390 kts | 268° |
| 2026-05-08 05:25 | 25.11308 | 53.04418 | 12727 ft | 386 kts | 268° |
| 2026-05-08 05:25 | 25.11264 | 53.01472 | 12154 ft | 382 kts | 268° |
| 2026-05-08 05:26 | 25.11221 | 52.98555 | 11574 ft | 378 kts | 268° |
| 2026-05-08 05:26 | 25.11176 | 52.95674 | 11059 ft | 373 kts | 269° |
| 2026-05-08 05:26 | 25.11131 | 52.92828 | 10497 ft | 369 kts | 269° |
| 2026-05-08 05:26 | 25.11087 | 52.90010 | 9943 ft | 366 kts | 269° |
| 2026-05-08 05:27 | 25.11043 | 52.87238 | 9609 ft | 355 kts | 269° |
| 2026-05-08 05:27 | 25.11002 | 52.84575 | 9397 ft | 340 kts | 269° |
| 2026-05-08 05:27 | 25.10961 | 52.82019 | 9213 ft | 326 kts | 269° |
| 2026-05-08 05:27 | 25.10922 | 52.79570 | 9027 ft | 313 kts | 269° |
| 2026-05-08 05:28 | 25.10884 | 52.77221 | 8859 ft | 300 kts | 269° |
| 2026-05-08 05:28 | 25.10847 | 52.74956 | 8569 ft | 293 kts | 269° |
| 2026-05-08 05:28 | 25.10809 | 52.72725 | 8203 ft | 289 kts | 269° |
| 2026-05-08 05:28 | 25.10772 | 52.70527 | 7833 ft | 285 kts | 269° |
| 2026-05-08 05:29 | 25.10735 | 52.68350 | 7425 ft | 283 kts | 269° |
| 2026-05-08 05:29 | 25.10698 | 52.66199 | 7057 ft | 279 kts | 269° |
| 2026-05-08 05:29 | 25.10661 | 52.64067 | 6712 ft | 275 kts | 269° |
| 2026-05-08 05:29 | 25.10625 | 52.61963 | 6504 ft | 275 kts | 269° |
| 2026-05-08 05:30 | 25.10588 | 52.59848 | 6321 ft | 275 kts | 269° |
| 2026-05-08 05:30 | 25.10550 | 52.57737 | 6131 ft | 275 kts | 269° |
| 2026-05-08 05:30 | 25.10511 | 52.55621 | 5939 ft | 276 kts | 269° |
| 2026-05-08 05:30 | 25.10472 | 52.53504 | 5747 ft | 275 kts | 269° |
| 2026-05-08 05:31 | 25.10434 | 52.51399 | 5552 ft | 274 kts | 269° |
| 2026-05-08 05:31 | 25.10396 | 52.49297 | 5357 ft | 275 kts | 270° |
| 2026-05-08 05:31 | 25.10356 | 52.47194 | 5146 ft | 273 kts | 270° |
| 2026-05-08 05:31 | 25.10316 | 52.45094 | 4695 ft | 274 kts | 270° |
| 2026-05-08 05:32 | 25.10276 | 52.42989 | 4231 ft | 275 kts | 270° |
| 2026-05-08 05:32 | 25.10235 | 52.40892 | 3849 ft | 272 kts | 271° |
| 2026-05-08 05:32 | 25.10196 | 52.38813 | 3505 ft | 270 kts | 271° |
| 2026-05-08 05:32 | 25.10158 | 52.36742 | 3373 ft | 270 kts | 271° |
| 2026-05-08 05:33 | 25.10117 | 52.34647 | 3369 ft | 282 kts | 272° |
| 2026-05-08 05:33 | 25.10081 | 52.32392 | 3422 ft | 304 kts | 271° |
| 2026-05-08 05:33 | 25.10038 | 52.30022 | 3486 ft | 321 kts | 272° |
| 2026-05-08 05:33 | 25.09986 | 52.27546 | 3488 ft | 324 kts | 271° |
| 2026-05-08 05:34 | 25.09936 | 52.25052 | 3502 ft | 326 kts | 271° |
| 2026-05-08 05:34 | 25.09883 | 52.22556 | 3506 ft | 326 kts | 270° |
| 2026-05-08 05:34 | 25.09833 | 52.20056 | 3507 ft | 326 kts | 270° |
| 2026-05-08 05:34 | 25.09779 | 52.17557 | 3504 ft | 326 kts | 271° |
| 2026-05-08 05:35 | 25.09727 | 52.15056 | 3501 ft | 325 kts | 270° |
| 2026-05-08 05:35 | 25.09672 | 52.12573 | 3505 ft | 320 kts | 271° |
| 2026-05-08 05:35 | 25.09618 | 52.10193 | 3511 ft | 300 kts | 272° |
| 2026-05-08 05:35 | 25.09572 | 52.07976 | 3516 ft | 279 kts | 271° |
| 2026-05-08 05:36 | 25.09527 | 52.05908 | 3511 ft | 260 kts | 271° |
| 2026-05-08 05:36 | 25.09880 | 52.04089 | 3513 ft | 230 kts | 304° |
| 2026-05-08 05:36 | 25.10705 | 52.02640 | 3515 ft | 221 kts | 306° |
| 2026-05-08 05:36 | 25.11461 | 52.01164 | 3521 ft | 222 kts | 295° |
| 2026-05-08 05:37 | 25.11789 | 51.99492 | 3513 ft | 224 kts | 275° |
| 2026-05-08 05:37 | 25.11737 | 51.97839 | 3531 ft | 208 kts | 271° |
| 2026-05-08 05:37 | 25.11704 | 51.96260 | 3511 ft | 203 kts | 277° |
| 2026-05-08 05:37 | 25.11832 | 51.94720 | 3504 ft | 201 kts | 281° |
| 2026-05-08 05:38 | 25.12015 | 51.93192 | 3495 ft | 201 kts | 283° |
| 2026-05-08 05:38 | 25.12229 | 51.91674 | 3494 ft | 199 kts | 286° |
| 2026-05-08 05:38 | 25.12522 | 51.90182 | 3495 ft | 199 kts | 286° |
| 2026-05-08 05:38 | 25.12846 | 51.88696 | 3501 ft | 198 kts | 287° |
| 2026-05-08 05:39 | 25.13150 | 51.87286 | 3504 ft | 178 kts | 288° |
| 2026-05-08 05:39 | 25.13419 | 51.86034 | 3509 ft | 159 kts | 288° |
| 2026-05-08 05:39 | 25.13697 | 51.84883 | 3510 ft | 153 kts | 291° |
| 2026-05-08 05:39 | 25.13984 | 51.83764 | 3501 ft | 152 kts | 287° |
| 2026-05-08 05:40 | 25.14164 | 51.82605 | 3495 ft | 154 kts | 283° |
| 2026-05-08 05:40 | 25.14309 | 51.81426 | 3498 ft | 156 kts | 283° |
| 2026-05-08 05:40 | 25.14430 | 51.80234 | 3489 ft | 157 kts | 283° |
| 2026-05-08 05:40 | 25.14535 | 51.79036 | 3402 ft | 154 kts | 282° |
| 2026-05-08 05:41 | 25.14642 | 51.77877 | 3071 ft | 155 kts | 283° |
| 2026-05-08 05:41 | 25.14742 | 51.76680 | 2684 ft | 159 kts | 283° |
| 2026-05-08 05:41 | 25.14922 | 51.75472 | 2283 ft | 161 kts | 291° |
| 2026-05-08 05:41 | 25.15169 | 51.74275 | 2029 ft | 156 kts | 292° |
| 2026-05-08 05:42 | 25.15393 | 51.73145 | 1998 ft | 148 kts | 292° |
| 2026-05-08 05:42 | 25.15616 | 51.72031 | 1998 ft | 149 kts | 292° |
| 2026-05-08 05:42 | 25.15844 | 51.70915 | 1992 ft | 149 kts | 293° |
| 2026-05-08 05:42 | 25.16056 | 51.69801 | 1989 ft | 148 kts | 292° |
| 2026-05-08 05:43 | 25.16261 | 51.68697 | 1830 ft | 144 kts | 292° |
| 2026-05-08 05:43 | 25.16469 | 51.67599 | 1812 ft | 148 kts | 292° |
| 2026-05-08 05:43 | 25.16968 | 51.66687 | 1767 ft | 135 kts | 328° |
| 2026-05-08 05:43 | 25.17750 | 51.66115 | 1592 ft | 134 kts | 342° |
| 2026-05-08 05:44 | 25.18618 | 51.65757 | 1403 ft | 133 kts | 341° |
| 2026-05-08 05:44 | 25.19475 | 51.65361 | 1226 ft | 134 kts | 343° |
| 2026-05-08 05:44 | 25.19715 | 51.65254 | 1182 ft | 135 kts | 343° |
| 2026-05-08 05:44 | 25.20503 | 51.64906 | 1014 ft | 136 kts | 342° |
| 2026-05-08 05:45 | 25.21021 | 51.64677 | 927 ft | 136 kts | 342° |
| 2026-05-08 05:45 | 25.21904 | 51.64287 | 770 ft | 137 kts | 339° |
| 2026-05-08 05:45 | 25.22785 | 51.63891 | 619 ft | 137 kts | 342° |
| 2026-05-08 05:45 | 25.23672 | 51.63502 | 447 ft | 138 kts | 342° |
| 2026-05-08 05:46 | 25.24564 | 51.63109 | 256 ft | 139 kts | 342° |
| 2026-05-08 05:46 | 25.25459 | 51.62717 | 93 ft | 137 kts | 338° |
| 2026-05-08 05:46 | 25.26034 | 51.62455 | 37 ft | 130 kts | 339° |
| 2026-05-08 05:46 | 25.26783 | 51.62133 | 29 ft | 90 kts | 337° |
| 2026-05-08 05:47 | 25.27193 | 51.61949 | 32 ft | 55 kts | 338° |
| 2026-05-08 05:47 | 25.27431 | 51.61763 | 34 ft | 33 kts | 308° |
| 2026-05-08 05:47 | 25.27452 | 51.61734 | 34 ft | 0 kts | 308° |
| 2026-05-08 05:49 | 25.27453 | 51.61731 | 34 ft | 2 kts | 308° |
| 2026-05-08 05:49 | 25.27471 | 51.61707 | 34 ft | 6 kts | 309° |
| 2026-05-08 05:49 | 25.27501 | 51.61666 | 34 ft | 8 kts | 309° |
| 2026-05-08 05:50 | 25.27537 | 51.61613 | 34 ft | 9 kts | 298° |
| 2026-05-08 05:50 | 25.27538 | 51.61543 | 35 ft | 10 kts | 253° |
| 2026-05-08 05:50 | 25.27537 | 51.61539 | 35 ft | 10 kts | 253° |
| 2026-05-08 05:50 | 25.27521 | 51.61484 | 35 ft | 11 kts | 250° |
| 2026-05-08 05:51 | 25.27468 | 51.61432 | 35 ft | 11 kts | 186° |
| 2026-05-08 05:51 | 25.27425 | 51.61484 | 35 ft | 11 kts | 118° |
| 2026-05-08 05:51 | 25.27375 | 51.61551 | 35 ft | 12 kts | 144° |
| 2026-05-08 05:51 | 25.27327 | 51.61545 | 35 ft | 5 kts | 233° |
| 2026-05-08 05:52 | 25.27322 | 51.61520 | 36 ft | 4 kts | 263° |
| 2026-05-08 05:52 | 25.27315 | 51.61487 | 36 ft | 4 kts | 250° |
| 2026-05-08 05:52 | 25.27314 | 51.61487 | 36 ft | 0 kts | 250° |